sensor_id;sensor_type;location;lat;lon;timestamp;pressure;altitude;pressure_sealevel;temperature;humidity
60820;BME280;46641;48.904;9.126;2022-07-15T00:04:04;98871.66;;;28.52;34.34
60820;BME280;46641;48.904;9.126;2022-07-15T00:08:55;98873.50;;;28.46;34.79
60820;BME280;46641;48.904;9.126;2022-07-15T00:13:45;98872.66;;;28.40;35.14
60820;BME280;46641;48.904;9.126;2022-07-15T00:18:35;98870.09;;;28.34;35.01
60820;BME280;46641;48.904;9.126;2022-07-15T00:23:25;98867.38;;;28.29;34.94
60820;BME280;46641;48.904;9.126;2022-07-15T00:28:16;98869.19;;;28.23;35.14
60820;BME280;46641;48.904;9.126;2022-07-15T00:33:07;98867.28;;;28.18;34.93
60820;BME280;46641;48.904;9.126;2022-07-15T00:37:58;98869.09;;;28.13;35.01
60820;BME280;46641;48.904;9.126;2022-07-15T00:42:49;98858.78;;;28.05;35.10
60820;BME280;46641;48.904;9.126;2022-07-15T00:47:41;98866.53;;;28.01;35.08
60820;BME280;46641;48.904;9.126;2022-07-15T00:52:32;98860.31;;;27.95;35.09
60820;BME280;46641;48.904;9.126;2022-07-15T00:57:26;98865.63;;;27.90;35.35
60820;BME280;46641;48.904;9.126;2022-07-15T01:02:17;98870.13;;;27.85;35.22
60820;BME280;46641;48.904;9.126;2022-07-15T01:07:08;98868.19;;;27.80;35.51
60820;BME280;46641;48.904;9.126;2022-07-15T01:11:58;98868.09;;;27.75;35.66
60820;BME280;46641;48.904;9.126;2022-07-15T01:16:48;98866.66;;;27.67;35.83
60820;BME280;46641;48.904;9.126;2022-07-15T01:21:39;98870.91;;;27.63;35.54
60820;BME280;46641;48.904;9.126;2022-07-15T01:26:29;98866.53;;;27.57;35.60
60820;BME280;46641;48.904;9.126;2022-07-15T01:31:19;98872.91;;;27.51;36.00
60820;BME280;46641;48.904;9.126;2022-07-15T01:36:10;98876.34;;;27.46;35.88
60820;BME280;46641;48.904;9.126;2022-07-15T01:41:01;98869.00;;;27.42;35.59
60820;BME280;46641;48.904;9.126;2022-07-15T01:45:52;98872.97;;;27.34;35.86
60820;BME280;46641;48.904;9.126;2022-07-15T01:50:42;98874.25;;;27.32;36.20
60820;BME280;46641;48.904;9.126;2022-07-15T01:55:33;98884.13;;;27.26;35.90
60820;BME280;46641;48.904;9.126;2022-07-15T02:00:24;98876.22;;;27.19;36.10
60820;BME280;46641;48.904;9.126;2022-07-15T02:05:14;98880.47;;;27.15;36.13
60820;BME280;46641;48.904;9.126;2022-07-15T02:10:05;98868.00;;;27.09;36.29
60820;BME280;46641;48.904;9.126;2022-07-15T02:14:55;98873.31;;;27.04;36.21
60820;BME280;46641;48.904;9.126;2022-07-15T02:19:45;98877.78;;;26.98;36.29
60820;BME280;46641;48.904;9.126;2022-07-15T02:24:36;98873.38;;;26.92;36.32
60820;BME280;46641;48.904;9.126;2022-07-15T02:29:26;98869.25;;;26.85;36.60
60820;BME280;46641;48.904;9.126;2022-07-15T02:34:16;98873.44;;;26.80;36.41
60820;BME280;46641;48.904;9.126;2022-07-15T02:39:07;98873.13;;;26.77;36.32
60820;BME280;46641;48.904;9.126;2022-07-15T02:43:57;98873.28;;;26.70;36.59
60820;BME280;46641;48.904;9.126;2022-07-15T02:48:49;98883.97;;;26.65;36.61
60820;BME280;46641;48.904;9.126;2022-07-15T02:53:39;98882.47;;;26.57;36.57
60820;BME280;46641;48.904;9.126;2022-07-15T02:58:31;98889.38;;;26.53;36.68
60820;BME280;46641;48.904;9.126;2022-07-15T03:03:21;98894.44;;;26.50;36.81
60820;BME280;46641;48.904;9.126;2022-07-15T03:08:12;98898.84;;;26.44;36.87
60820;BME280;46641;48.904;9.126;2022-07-15T03:13:02;98896.09;;;26.39;37.08
60820;BME280;46641;48.904;9.126;2022-07-15T03:17:53;98898.69;;;26.34;37.12
60820;BME280;46641;48.904;9.126;2022-07-15T03:22:43;98898.81;;;26.27;36.92
60820;BME280;46641;48.904;9.126;2022-07-15T03:27:34;98896.28;;;26.21;37.24
60820;BME280;46641;48.904;9.126;2022-07-15T03:32:24;98900.03;;;26.20;37.13
60820;BME280;46641;48.904;9.126;2022-07-15T03:37:15;98900.66;;;26.10;37.42
60820;BME280;46641;48.904;9.126;2022-07-15T03:42:05;98909.97;;;26.07;37.33
60820;BME280;46641;48.904;9.126;2022-07-15T03:46:55;98906.16;;;26.03;37.29
60820;BME280;46641;48.904;9.126;2022-07-15T03:51:46;98904.97;;;25.99;37.06
60820;BME280;46641;48.904;9.126;2022-07-15T03:56:37;98907.78;;;25.93;37.33
60820;BME280;46641;48.904;9.126;2022-07-15T04:01:27;98911.22;;;25.88;37.26
60820;BME280;46641;48.904;9.126;2022-07-15T04:06:19;98907.38;;;25.84;37.60
60820;BME280;46641;48.904;9.126;2022-07-15T04:11:10;98911.53;;;25.80;37.67
60820;BME280;46641;48.904;9.126;2022-07-15T04:16:01;98911.44;;;25.75;37.44
60820;BME280;46641;48.904;9.126;2022-07-15T04:20:51;98914.00;;;25.70;37.76
60820;BME280;46641;48.904;9.126;2022-07-15T04:25:42;98915.53;;;25.65;37.87
60820;BME280;46641;48.904;9.126;2022-07-15T04:30:32;98918.09;;;25.60;37.92
60820;BME280;46641;48.904;9.126;2022-07-15T04:35:23;98910.50;;;25.57;38.02
60820;BME280;46641;48.904;9.126;2022-07-15T04:40:13;98907.75;;;25.52;37.98
60820;BME280;46641;48.904;9.126;2022-07-15T04:45:04;98908.41;;;25.48;38.27
60820;BME280;46641;48.904;9.126;2022-07-15T04:49:55;98916.72;;;25.46;38.01
60820;BME280;46641;48.904;9.126;2022-07-15T04:55:03;98911.22;;;25.41;38.10
60820;BME280;46641;48.904;9.126;2022-07-15T04:59:54;98909.50;;;25.35;38.41
60820;BME280;46641;48.904;9.126;2022-07-15T05:04:44;98921.50;;;25.32;38.52
60820;BME280;46641;48.904;9.126;2022-07-15T05:09:34;98923.00;;;25.28;38.60
60820;BME280;46641;48.904;9.126;2022-07-15T05:14:25;98923.47;;;25.25;38.42
60820;BME280;46641;48.904;9.126;2022-07-15T05:19:15;98922.09;;;25.23;38.36
60820;BME280;46641;48.904;9.126;2022-07-15T05:24:05;98921.47;;;25.21;38.42
60820;BME280;46641;48.904;9.126;2022-07-15T05:28:56;98932.44;;;25.19;38.50
60820;BME280;46641;48.904;9.126;2022-07-15T05:33:46;98932.09;;;25.15;38.51
60820;BME280;46641;48.904;9.126;2022-07-15T05:38:37;98932.25;;;25.02;38.40
60820;BME280;46641;48.904;9.126;2022-07-15T05:43:27;98929.00;;;25.00;38.26
60820;BME280;46641;48.904;9.126;2022-07-15T05:48:17;98934.22;;;24.95;37.95
60820;BME280;46641;48.904;9.126;2022-07-15T05:53:07;98931.66;;;24.88;38.46
60820;BME280;46641;48.904;9.126;2022-07-15T05:57:58;98940.16;;;24.85;38.44
60820;BME280;46641;48.904;9.126;2022-07-15T06:02:48;98943.75;;;24.79;38.84
60820;BME280;46641;48.904;9.126;2022-07-15T06:07:38;98947.72;;;24.77;39.22
60820;BME280;46641;48.904;9.126;2022-07-15T06:12:29;98945.50;;;24.74;39.70
60820;BME280;46641;48.904;9.126;2022-07-15T06:17:19;98945.13;;;24.70;39.45
60820;BME280;46641;48.904;9.126;2022-07-15T06:22:10;98943.47;;;24.69;39.25
60820;BME280;46641;48.904;9.126;2022-07-15T06:27:00;98950.69;;;24.68;38.58
60820;BME280;46641;48.904;9.126;2022-07-15T06:31:50;98960.00;;;24.66;38.48
60820;BME280;46641;48.904;9.126;2022-07-15T06:36:41;98943.38;;;24.64;38.13
60820;BME280;46641;48.904;9.126;2022-07-15T06:41:31;98953.22;;;24.63;38.27
60820;BME280;46641;48.904;9.126;2022-07-15T06:46:22;98951.03;;;24.60;38.40
60820;BME280;46641;48.904;9.126;2022-07-15T06:51:12;98949.84;;;24.56;37.93
60820;BME280;46641;48.904;9.126;2022-07-15T06:56:03;98944.28;;;24.58;38.14
60820;BME280;46641;48.904;9.126;2022-07-15T07:00:53;98943.47;;;24.57;37.50
60820;BME280;46641;48.904;9.126;2022-07-15T07:05:44;98949.84;;;24.56;37.39
60820;BME280;46641;48.904;9.126;2022-07-15T07:10:34;98942.88;;;24.55;37.58
60820;BME280;46641;48.904;9.126;2022-07-15T07:15:25;98943.47;;;24.57;36.87
60820;BME280;46641;48.904;9.126;2022-07-15T07:20:15;98941.34;;;24.59;36.66
60820;BME280;46641;48.904;9.126;2022-07-15T07:25:05;98932.31;;;24.60;35.97
60820;BME280;46641;48.904;9.126;2022-07-15T07:29:57;98937.06;;;24.58;36.59
60820;BME280;46641;48.904;9.126;2022-07-15T07:34:47;98935.44;;;24.57;36.60
60820;BME280;46641;48.904;9.126;2022-07-15T07:39:38;98932.31;;;24.60;35.58
60820;BME280;46641;48.904;9.126;2022-07-15T07:44:28;98933.41;;;24.22;33.54
60820;BME280;46641;48.904;9.126;2022-07-15T07:49:18;98942.72;;;23.58;35.32
60820;BME280;46641;48.904;9.126;2022-07-15T07:54:09;98929.53;;;24.18;35.19
60820;BME280;46641;48.904;9.126;2022-07-15T07:58:59;98928.97;;;24.46;34.51
60820;BME280;46641;48.904;9.126;2022-07-15T08:03:50;98920.53;;;24.61;34.38
60820;BME280;46641;48.904;9.126;2022-07-15T08:08:40;98927.22;;;24.70;33.93
60820;BME280;46641;48.904;9.126;2022-07-15T08:13:30;98917.44;;;24.76;33.90
60820;BME280;46641;48.904;9.126;2022-07-15T08:18:21;98922.69;;;24.83;34.36
60820;BME280;46641;48.904;9.126;2022-07-15T08:23:12;98930.13;;;24.81;34.63
60820;BME280;46641;48.904;9.126;2022-07-15T08:28:03;98919.53;;;24.86;34.20
60820;BME280;46641;48.904;9.126;2022-07-15T08:32:53;98923.75;;;24.93;33.89
60820;BME280;46641;48.904;9.126;2022-07-15T08:37:44;98917.34;;;24.94;34.30
60820;BME280;46641;48.904;9.126;2022-07-15T08:42:35;98922.50;;;24.96;34.26
60820;BME280;46641;48.904;9.126;2022-07-15T08:47:31;98931.22;;;25.03;31.10
60820;BME280;46641;48.904;9.126;2022-07-15T08:52:23;98929.94;;;24.34;33.10
60820;BME280;46641;48.904;9.126;2022-07-15T08:57:14;98932.38;;;24.84;32.93
60820;BME280;46641;48.904;9.126;2022-07-15T09:02:04;98935.41;;;25.11;32.80
60820;BME280;46641;48.904;9.126;2022-07-15T09:06:54;98938.72;;;25.25;33.00
60820;BME280;46641;48.904;9.126;2022-07-15T09:11:59;98931.28;;;25.38;32.80
60820;BME280;46641;48.904;9.126;2022-07-15T09:16:50;98931.50;;;25.49;33.02
60820;BME280;46641;48.904;9.126;2022-07-15T09:21:41;98929.88;;;25.59;33.29
60820;BME280;46641;48.904;9.126;2022-07-15T09:26:35;98930.09;;;25.70;33.87
60820;BME280;46641;48.904;9.126;2022-07-15T09:31:36;98931.50;;;25.84;33.30
60820;BME280;46641;48.904;9.126;2022-07-15T09:36:48;98933.94;;;25.97;34.60
60820;BME280;46641;48.904;9.126;2022-07-15T09:41:44;98932.00;;;26.09;35.02
60820;BME280;46641;48.904;9.126;2022-07-15T09:46:46;98931.84;;;26.28;34.63
60820;BME280;46641;48.904;9.126;2022-07-15T09:51:49;98933.69;;;26.39;35.03
60820;BME280;46641;48.904;9.126;2022-07-15T09:56:40;98932.09;;;26.55;35.98
60820;BME280;46641;48.904;9.126;2022-07-15T10:01:31;98939.72;;;26.75;35.75
60820;BME280;46641;48.904;9.126;2022-07-15T10:06:25;98940.59;;;26.97;35.61
60820;BME280;46641;48.904;9.126;2022-07-15T10:11:16;98935.50;;;27.13;36.12
60820;BME280;46641;48.904;9.126;2022-07-15T10:21:08;98933.81;;;27.40;35.42
60820;BME280;46641;48.904;9.126;2022-07-15T10:26:17;98925.38;;;27.54;34.97
60820;BME280;46641;48.904;9.126;2022-07-15T10:36:09;98907.47;;;27.81;36.10
60820;BME280;46641;48.904;9.126;2022-07-15T10:41:09;98904.41;;;27.94;36.70
60820;BME280;46641;48.904;9.126;2022-07-15T10:46:04;98901.59;;;28.06;36.32
60820;BME280;46641;48.904;9.126;2022-07-15T10:50:55;98903.09;;;28.19;36.95
60820;BME280;46641;48.904;9.126;2022-07-15T10:55:45;98897.72;;;28.24;36.08
60820;BME280;46641;48.904;9.126;2022-07-15T11:00:36;98890.41;;;28.41;36.14
60820;BME280;46641;48.904;9.126;2022-07-15T11:05:27;98881.22;;;28.37;30.52
60820;BME280;46641;48.904;9.126;2022-07-15T11:10:18;98877.44;;;28.11;29.67
60820;BME280;46641;48.904;9.126;2022-07-15T11:15:14;98881.81;;;27.73;28.78
60820;BME280;46641;48.904;9.126;2022-07-15T11:20:09;98870.59;;;27.60;32.04
60820;BME280;46641;48.904;9.126;2022-07-15T11:25:02;98860.97;;;28.08;32.53
60820;BME280;46641;48.904;9.126;2022-07-15T11:29:56;98864.09;;;28.49;32.69
60820;BME280;46641;48.904;9.126;2022-07-15T11:34:54;98875.09;;;28.74;32.33
60820;BME280;46641;48.904;9.126;2022-07-15T11:39:47;98867.38;;;28.88;33.18
60820;BME280;46641;48.904;9.126;2022-07-15T11:44:47;98866.72;;;29.03;32.66
60820;BME280;46641;48.904;9.126;2022-07-15T11:49:38;98860.03;;;29.10;33.09
60820;BME280;46641;48.904;9.126;2022-07-15T11:54:31;98859.53;;;29.19;33.79
60820;BME280;46641;48.904;9.126;2022-07-15T11:59:21;98860.94;;;29.26;33.76
60820;BME280;46641;48.904;9.126;2022-07-15T12:04:12;98852.31;;;29.29;33.65
60820;BME280;46641;48.904;9.126;2022-07-15T12:09:04;98849.09;;;29.32;34.07
60820;BME280;46641;48.904;9.126;2022-07-15T12:14:05;98845.59;;;29.37;33.56
60820;BME280;46641;48.904;9.126;2022-07-15T12:19:03;98845.59;;;29.37;32.87
60820;BME280;46641;48.904;9.126;2022-07-15T12:24:00;98842.94;;;29.42;34.33
60820;BME280;46641;48.904;9.126;2022-07-15T12:28:58;98839.44;;;29.47;34.00
60820;BME280;46641;48.904;9.126;2022-07-15T12:33:50;98846.50;;;29.53;34.69
60820;BME280;46641;48.904;9.126;2022-07-15T12:38:42;98842.50;;;29.61;34.86
60820;BME280;46641;48.904;9.126;2022-07-15T12:43:51;98844.44;;;29.70;33.31
60820;BME280;46641;48.904;9.126;2022-07-15T12:48:47;98840.97;;;29.75;33.81
60820;BME280;46641;48.904;9.126;2022-07-15T12:53:38;98844.47;;;29.75;34.23
60820;BME280;46641;48.904;9.126;2022-07-15T12:58:30;98837.44;;;29.79;34.36
60820;BME280;46641;48.904;9.126;2022-07-15T13:03:28;98842.84;;;29.79;34.17
60820;BME280;46641;48.904;9.126;2022-07-15T13:08:21;98835.31;;;29.87;34.04
60820;BME280;46641;48.904;9.126;2022-07-15T13:13:13;98827.78;;;29.94;34.00
60820;BME280;46641;48.904;9.126;2022-07-15T13:18:04;98826.72;;;30.00;33.58
60820;BME280;46641;48.904;9.126;2022-07-15T13:22:55;98830.91;;;29.60;31.34
60820;BME280;46641;48.904;9.126;2022-07-15T13:27:47;98817.59;;;29.38;27.88
60820;BME280;46641;48.904;9.126;2022-07-15T13:32:38;98825.59;;;28.53;31.43
60820;BME280;46641;48.904;9.126;2022-07-15T13:37:28;98826.59;;;29.11;31.34
60820;BME280;46641;48.904;9.126;2022-07-15T13:42:19;98823.03;;;29.53;30.71
60820;BME280;46641;48.904;9.126;2022-07-15T13:47:10;98825.53;;;29.70;30.49
60820;BME280;46641;48.904;9.126;2022-07-15T13:52:00;98828.03;;;29.77;30.65
60820;BME280;46641;48.904;9.126;2022-07-15T13:56:50;98827.22;;;29.81;31.01
60820;BME280;46641;48.904;9.126;2022-07-15T14:01:41;98841.00;;;29.85;30.98
60820;BME280;46641;48.904;9.126;2022-07-15T14:06:31;98841.25;;;29.89;31.04
60820;BME280;46641;48.904;9.126;2022-07-15T14:11:21;98851.25;;;29.88;31.20
60820;BME280;46641;48.904;9.126;2022-07-15T14:16:12;98845.03;;;29.88;31.10
60820;BME280;46641;48.904;9.126;2022-07-15T14:21:02;98849.34;;;29.84;31.37
60820;BME280;46641;48.904;9.126;2022-07-15T14:25:53;98835.56;;;29.75;31.04
60820;BME280;46641;48.904;9.126;2022-07-15T14:30:43;98835.28;;;29.76;31.06
60820;BME280;46641;48.904;9.126;2022-07-15T14:35:33;98823.16;;;29.74;30.98
60820;BME280;46641;48.904;9.126;2022-07-15T14:40:23;98823.16;;;29.74;31.10
60820;BME280;46641;48.904;9.126;2022-07-15T14:45:14;98825.00;;;29.73;31.40
60820;BME280;46641;48.904;9.126;2022-07-15T14:50:05;98827.72;;;29.73;32.11
60820;BME280;46641;48.904;9.126;2022-07-15T14:54:55;98825.56;;;29.75;32.00
60820;BME280;46641;48.904;9.126;2022-07-15T14:59:46;98810.22;;;28.81;30.63
60820;BME280;46641;48.904;9.126;2022-07-15T15:04:36;98822.31;;;29.16;31.03
60820;BME280;46641;48.904;9.126;2022-07-15T15:09:28;98818.91;;;29.41;30.84
60820;BME280;46641;48.904;9.126;2022-07-15T15:14:18;98823.38;;;29.62;30.93
60820;BME280;46641;48.904;9.126;2022-07-15T15:19:08;98823.94;;;29.69;30.70
60820;BME280;46641;48.904;9.126;2022-07-15T15:23:59;98811.53;;;29.73;30.17
60820;BME280;46641;48.904;9.126;2022-07-15T15:28:51;98822.59;;;29.72;30.79
60820;BME280;46641;48.904;9.126;2022-07-15T15:33:42;98820.16;;;29.70;31.06
60820;BME280;46641;48.904;9.126;2022-07-15T15:38:32;98822.06;;;29.75;30.84
60820;BME280;46641;48.904;9.126;2022-07-15T15:43:23;98826.09;;;29.72;31.13
60820;BME280;46641;48.904;9.126;2022-07-15T15:48:13;98825.28;;;29.72;31.32
60820;BME280;46641;48.904;9.126;2022-07-15T15:53:03;98824.47;;;29.66;31.38
60820;BME280;46641;48.904;9.126;2022-07-15T15:57:54;98829.03;;;29.66;31.49
60820;BME280;46641;48.904;9.126;2022-07-15T16:02:44;98821.22;;;29.64;31.95
60820;BME280;46641;48.904;9.126;2022-07-15T16:07:35;98822.84;;;29.65;31.29
60820;BME280;46641;48.904;9.126;2022-07-15T16:12:25;98820.66;;;29.62;31.09
60820;BME280;46641;48.904;9.126;2022-07-15T16:17:16;98824.94;;;29.58;32.07
60820;BME280;46641;48.904;9.126;2022-07-15T16:22:06;98825.75;;;29.58;31.85
60820;BME280;46641;48.904;9.126;2022-07-15T16:27:15;98822.81;;;29.60;31.31
60820;BME280;46641;48.904;9.126;2022-07-15T16:32:06;98818.47;;;29.59;32.07
60820;BME280;46641;48.904;9.126;2022-07-15T16:36:56;98815.78;;;29.59;31.37
60820;BME280;46641;48.904;9.126;2022-07-15T16:41:46;98821.41;;;29.52;32.04
60820;BME280;46641;48.904;9.126;2022-07-15T16:46:37;98820.03;;;29.50;31.88
60820;BME280;46641;48.904;9.126;2022-07-15T16:51:27;98820.56;;;29.47;32.45
60820;BME280;46641;48.904;9.126;2022-07-15T16:56:17;98827.28;;;29.44;32.36
60820;BME280;46641;48.904;9.126;2022-07-15T17:01:08;98824.88;;;29.43;32.03
60820;BME280;46641;48.904;9.126;2022-07-15T17:05:59;98816.78;;;29.43;32.48
60820;BME280;46641;48.904;9.126;2022-07-15T17:10:49;98828.09;;;29.40;32.75
60820;BME280;46641;48.904;9.126;2022-07-15T17:15:40;98821.63;;;29.35;32.49
60820;BME280;46641;48.904;9.126;2022-07-15T17:20:30;98818.63;;;29.32;32.32
60820;BME280;46641;48.904;9.126;2022-07-15T17:25:20;98821.34;;;29.32;32.74
60820;BME280;46641;48.904;9.126;2022-07-15T17:30:11;98829.94;;;29.34;32.37
60820;BME280;46641;48.904;9.126;2022-07-15T17:35:02;98829.13;;;29.28;32.09
60820;BME280;46641;48.904;9.126;2022-07-15T17:39:53;98827.78;;;29.26;32.35
60820;BME280;46641;48.904;9.126;2022-07-15T17:44:43;98833.97;;;29.26;32.04
60820;BME280;46641;48.904;9.126;2022-07-15T17:49:34;98840.69;;;29.24;32.36
60820;BME280;46641;48.904;9.126;2022-07-15T17:54:24;98836.91;;;29.20;32.33
60820;BME280;46641;48.904;9.126;2022-07-15T17:59:14;98843.63;;;29.17;31.95
60820;BME280;46641;48.904;9.126;2022-07-15T18:04:05;98852.75;;;29.11;32.00
60820;BME280;46641;48.904;9.126;2022-07-15T18:08:55;98846.78;;;29.04;32.42
60820;BME280;46641;48.904;9.126;2022-07-15T18:13:46;98851.88;;;29.00;32.59
60820;BME280;46641;48.904;9.126;2022-07-15T18:18:36;98851.03;;;29.00;32.48
60820;BME280;46641;48.904;9.126;2022-07-15T18:23:27;98847.78;;;28.98;32.13
60820;BME280;46641;48.904;9.126;2022-07-15T18:28:17;98855.31;;;28.96;32.31
60820;BME280;46641;48.904;9.126;2022-07-15T18:33:07;98859.88;;;28.95;32.80
60820;BME280;46641;48.904;9.126;2022-07-15T18:37:58;98854.19;;;28.92;32.80
60820;BME280;46641;48.904;9.126;2022-07-15T18:42:48;98857.38;;;28.83;32.59
60820;BME280;46641;48.904;9.126;2022-07-15T18:47:39;98857.59;;;28.77;32.40
60820;BME280;46641;48.904;9.126;2022-07-15T18:52:29;98852.97;;;28.72;33.13
60820;BME280;46641;48.904;9.126;2022-07-15T18:57:20;98863.22;;;28.70;32.63
60820;BME280;46641;48.904;9.126;2022-07-15T19:02:10;98864.78;;;28.66;33.11
60820;BME280;46641;48.904;9.126;2022-07-15T19:07:01;98867.44;;;28.61;32.63
60820;BME280;46641;48.904;9.126;2022-07-15T19:11:51;98872.22;;;28.54;32.77
60820;BME280;46641;48.904;9.126;2022-07-15T19:16:42;98873.28;;;28.53;33.41
60820;BME280;46641;48.904;9.126;2022-07-15T19:21:33;98878.38;;;28.49;33.15
60820;BME280;46641;48.904;9.126;2022-07-15T19:26:23;98880.19;;;28.43;33.27
60820;BME280;46641;48.904;9.126;2022-07-15T19:31:14;98884.47;;;28.39;33.42
60820;BME280;46641;48.904;9.126;2022-07-15T19:36:04;98894.09;;;28.35;33.23
60820;BME280;46641;48.904;9.126;2022-07-15T19:40:55;98889.22;;;28.32;33.42
60820;BME280;46641;48.904;9.126;2022-07-15T19:45:45;98904.25;;;28.28;33.31
60820;BME280;46641;48.904;9.126;2022-07-15T19:50:35;98905.28;;;28.22;33.25
60820;BME280;46641;48.904;9.126;2022-07-15T19:55:26;98903.09;;;28.19;33.18
60820;BME280;46641;48.904;9.126;2022-07-15T20:00:17;98911.66;;;28.16;33.50
60820;BME280;46641;48.904;9.126;2022-07-15T20:05:07;98916.97;;;28.11;33.71
60820;BME280;46641;48.904;9.126;2022-07-15T20:09:58;98915.63;;;28.08;33.98
60820;BME280;46641;48.904;9.126;2022-07-15T20:14:48;98926.09;;;28.05;33.29
60820;BME280;46641;48.904;9.126;2022-07-15T20:19:39;98926.00;;;28.00;33.61
60820;BME280;46641;48.904;9.126;2022-07-15T20:24:30;98934.56;;;27.96;33.76
60820;BME280;46641;48.904;9.126;2022-07-15T20:29:20;98929.13;;;27.91;33.99
60820;BME280;46641;48.904;9.126;2022-07-15T20:34:11;98936.34;;;27.86;34.18
60820;BME280;46641;48.904;9.126;2022-07-15T20:39:01;98937.06;;;27.81;33.83
60820;BME280;46641;48.904;9.126;2022-07-15T20:43:51;98947.75;;;27.76;33.49
60820;BME280;46641;48.904;9.126;2022-07-15T20:48:42;98933.66;;;27.69;33.85
60820;BME280;46641;48.904;9.126;2022-07-15T20:53:32;98939.53;;;27.66;33.83
60820;BME280;46641;48.904;9.126;2022-07-15T20:58:22;98948.09;;;27.63;34.14
60820;BME280;46641;48.904;9.126;2022-07-15T21:03:13;98945.34;;;27.58;34.26
60820;BME280;46641;48.904;9.126;2022-07-15T21:08:04;98948.50;;;27.55;34.14
60820;BME280;46641;48.904;9.126;2022-07-15T21:12:55;98945.78;;;27.49;34.61
60820;BME280;46641;48.904;9.126;2022-07-15T21:17:45;98950.00;;;27.45;34.33
60820;BME280;46641;48.904;9.126;2022-07-15T21:22:36;98955.06;;;27.42;34.20
60820;BME280;46641;48.904;9.126;2022-07-15T21:27:26;98960.38;;;27.37;34.50
60820;BME280;46641;48.904;9.126;2022-07-15T21:32:17;98970.81;;;27.33;34.44
60820;BME280;46641;48.904;9.126;2022-07-15T21:37:08;98969.63;;;27.29;34.40
60820;BME280;46641;48.904;9.126;2022-07-15T21:41:58;98965.00;;;27.24;34.45
60820;BME280;46641;48.904;9.126;2022-07-15T21:46:48;98962.22;;;27.19;34.53
60820;BME280;46641;48.904;9.126;2022-07-15T21:51:39;98969.41;;;27.14;34.65
60820;BME280;46641;48.904;9.126;2022-07-15T21:56:29;98971.97;;;27.09;34.95
60820;BME280;46641;48.904;9.126;2022-07-15T22:01:19;98972.72;;;27.04;34.95
60820;BME280;46641;48.904;9.126;2022-07-15T22:06:10;98973.44;;;26.99;34.90
60820;BME280;46641;48.904;9.126;2022-07-15T22:11:00;98979.22;;;26.91;34.91
60820;BME280;46641;48.904;9.126;2022-07-15T22:15:51;98989.06;;;26.86;34.74
60820;BME280;46641;48.904;9.126;2022-07-15T22:20:41;98984.16;;;26.83;34.92
60820;BME280;46641;48.904;9.126;2022-07-15T22:25:31;98979.53;;;26.78;35.02
60820;BME280;46641;48.904;9.126;2022-07-15T22:30:22;98978.34;;;26.74;35.27
60820;BME280;46641;48.904;9.126;2022-07-15T22:35:14;98982.00;;;26.68;35.27
60820;BME280;46641;48.904;9.126;2022-07-15T22:40:05;98982.16;;;26.61;34.98
60820;BME280;46641;48.904;9.126;2022-07-15T22:44:56;98988.25;;;26.56;34.86
60820;BME280;46641;48.904;9.126;2022-07-15T22:49:46;98984.66;;;26.51;35.35
60820;BME280;46641;48.904;9.126;2022-07-15T22:54:36;98991.31;;;26.48;35.27
60820;BME280;46641;48.904;9.126;2022-07-15T22:59:27;98998.19;;;26.44;35.35
60820;BME280;46641;48.904;9.126;2022-07-15T23:04:17;98994.34;;;26.40;35.40
60820;BME280;46641;48.904;9.126;2022-07-15T23:09:08;98996.91;;;26.35;35.34
60820;BME280;46641;48.904;9.126;2022-07-15T23:13:58;98993.34;;;26.29;35.68
60820;BME280;46641;48.904;9.126;2022-07-15T23:18:49;99003.97;;;26.24;35.56
60820;BME280;46641;48.904;9.126;2022-07-15T23:23:39;99002.81;;;26.20;35.52
60820;BME280;46641;48.904;9.126;2022-07-15T23:28:30;98993.03;;;26.14;35.62
60820;BME280;46641;48.904;9.126;2022-07-15T23:33:20;98988.13;;;26.11;35.85
60820;BME280;46641;48.904;9.126;2022-07-15T23:38:10;98989.88;;;26.05;36.29
60820;BME280;46641;48.904;9.126;2022-07-15T23:43:01;98989.78;;;26.00;36.03
60820;BME280;46641;48.904;9.126;2022-07-15T23:47:51;98997.72;;;25.95;36.07
60820;BME280;46641;48.904;9.126;2022-07-15T23:52:41;98994.91;;;25.90;36.11
60820;BME280;46641;48.904;9.126;2022-07-15T23:57:32;98993.19;;;25.84;36.31
